sensor_id;sensor_type;location;lat;lon;timestamp;temperature;humidity
52167;DHT22;38149;52.666;6.428;2022-07-29T00:08:12;16.70;99.90
52167;DHT22;38149;52.666;6.428;2022-07-29T00:10:38;16.90;99.90
52167;DHT22;38149;52.666;6.428;2022-07-29T00:13:03;16.90;99.90
52167;DHT22;38149;52.666;6.428;2022-07-29T00:15:29;16.70;99.90
52167;DHT22;38149;52.666;6.428;2022-07-29T00:17:55;16.60;99.90
52167;DHT22;38149;52.666;6.428;2022-07-29T00:22:48;16.20;99.90
52167;DHT22;38149;52.666;6.428;2022-07-29T02:11:25;16.00;99.90
52167;DHT22;38149;52.666;6.428;2022-07-29T03:30:00;15.80;99.90
52167;DHT22;38149;52.666;6.428;2022-07-29T03:32:26;15.90;99.90
52167;DHT22;38149;52.666;6.428;2022-07-29T03:34:52;15.90;99.90
52167;DHT22;38149;52.666;6.428;2022-07-29T03:37:17;15.50;99.90
52167;DHT22;38149;52.666;6.428;2022-07-29T03:39:44;15.60;99.90
52167;DHT22;38149;52.666;6.428;2022-07-29T03:47:09;15.40;99.90
52167;DHT22;38149;52.666;6.428;2022-07-29T03:49:37;15.90;99.90
52167;DHT22;38149;52.666;6.428;2022-07-29T03:52:04;15.70;99.90
52167;DHT22;38149;52.666;6.428;2022-07-29T03:54:31;15.60;99.90
52167;DHT22;38149;52.666;6.428;2022-07-29T03:56:59;15.20;99.90
52167;DHT22;38149;52.666;6.428;2022-07-29T03:59:27;15.60;99.90
52167;DHT22;38149;52.666;6.428;2022-07-29T04:01:54;15.60;99.90
52167;DHT22;38149;52.666;6.428;2022-07-29T04:04:21;15.60;99.90
52167;DHT22;38149;52.666;6.428;2022-07-29T04:06:47;15.70;99.90
52167;DHT22;38149;52.666;6.428;2022-07-29T04:09:13;15.50;99.90
52167;DHT22;38149;52.666;6.428;2022-07-29T04:21:26;15.60;99.90
52167;DHT22;38149;52.666;6.428;2022-07-29T04:23:52;15.70;99.90
52167;DHT22;38149;52.666;6.428;2022-07-29T04:26:18;15.60;99.90
52167;DHT22;38149;52.666;6.428;2022-07-29T04:28:45;15.40;99.90
52167;DHT22;38149;52.666;6.428;2022-07-29T04:31:12;15.50;99.90
52167;DHT22;38149;52.666;6.428;2022-07-29T04:33:38;15.50;99.90
52167;DHT22;38149;52.666;6.428;2022-07-29T04:36:04;15.30;99.90
52167;DHT22;38149;52.666;6.428;2022-07-29T04:38:30;15.30;99.90
52167;DHT22;38149;52.666;6.428;2022-07-29T04:40:56;15.50;99.90
52167;DHT22;38149;52.666;6.428;2022-07-29T04:43:22;15.30;99.90
52167;DHT22;38149;52.666;6.428;2022-07-29T04:45:48;15.40;99.90
52167;DHT22;38149;52.666;6.428;2022-07-29T04:48:14;15.40;99.90
52167;DHT22;38149;52.666;6.428;2022-07-29T04:50:40;15.40;99.90
52167;DHT22;38149;52.666;6.428;2022-07-29T04:53:06;15.40;99.90
52167;DHT22;38149;52.666;6.428;2022-07-29T04:55:33;15.50;99.90
52167;DHT22;38149;52.666;6.428;2022-07-29T04:57:59;15.40;99.90
52167;DHT22;38149;52.666;6.428;2022-07-29T05:00:25;15.30;99.90
52167;DHT22;38149;52.666;6.428;2022-07-29T05:02:51;15.30;99.90
52167;DHT22;38149;52.666;6.428;2022-07-29T05:05:17;15.50;99.90
52167;DHT22;38149;52.666;6.428;2022-07-29T05:07:42;15.30;99.90
52167;DHT22;38149;52.666;6.428;2022-07-29T05:10:11;15.30;99.90
52167;DHT22;38149;52.666;6.428;2022-07-29T05:12:37;15.30;99.90
52167;DHT22;38149;52.666;6.428;2022-07-29T05:15:03;15.30;99.90
52167;DHT22;38149;52.666;6.428;2022-07-29T05:17:29;15.40;99.90
52167;DHT22;38149;52.666;6.428;2022-07-29T05:19:54;15.50;99.90
52167;DHT22;38149;52.666;6.428;2022-07-29T05:24:47;15.70;99.90
52167;DHT22;38149;52.666;6.428;2022-07-29T05:27:13;15.30;99.90
52167;DHT22;38149;52.666;6.428;2022-07-29T05:29:39;15.30;99.90
52167;DHT22;38149;52.666;6.428;2022-07-29T05:32:05;15.60;99.90
52167;DHT22;38149;52.666;6.428;2022-07-29T05:34:31;15.40;99.90
52167;DHT22;38149;52.666;6.428;2022-07-29T05:36:57;15.50;99.90
52167;DHT22;38149;52.666;6.428;2022-07-29T05:39:23;15.50;99.90
52167;DHT22;38149;52.666;6.428;2022-07-29T05:44:17;15.60;99.90
52167;DHT22;38149;52.666;6.428;2022-07-29T07:07:33;16.30;99.90
52167;DHT22;38149;52.666;6.428;2022-07-29T07:09:59;16.30;99.90
52167;DHT22;38149;52.666;6.428;2022-07-29T07:12:24;16.30;99.90
52167;DHT22;38149;52.666;6.428;2022-07-29T07:14:50;16.30;99.90
52167;DHT22;38149;52.666;6.428;2022-07-29T07:17:16;16.30;99.90
52167;DHT22;38149;52.666;6.428;2022-07-29T07:19:42;16.30;99.90
52167;DHT22;38149;52.666;6.428;2022-07-29T07:22:07;16.40;99.90
52167;DHT22;38149;52.666;6.428;2022-07-29T07:24:33;16.40;99.90
52167;DHT22;38149;52.666;6.428;2022-07-29T07:26:59;16.40;99.90
52167;DHT22;38149;52.666;6.428;2022-07-29T07:29:25;16.40;99.90
52167;DHT22;38149;52.666;6.428;2022-07-29T07:31:50;16.50;99.90
52167;DHT22;38149;52.666;6.428;2022-07-29T07:34:16;16.50;99.90
52167;DHT22;38149;52.666;6.428;2022-07-29T07:36:42;16.50;99.90
52167;DHT22;38149;52.666;6.428;2022-07-29T07:39:07;16.50;99.90
52167;DHT22;38149;52.666;6.428;2022-07-29T07:41:33;16.50;99.90
52167;DHT22;38149;52.666;6.428;2022-07-29T07:43:59;16.50;99.90
52167;DHT22;38149;52.666;6.428;2022-07-29T07:46:25;16.60;99.90
52167;DHT22;38149;52.666;6.428;2022-07-29T07:48:50;16.60;99.90
52167;DHT22;38149;52.666;6.428;2022-07-29T07:51:17;16.60;99.90
52167;DHT22;38149;52.666;6.428;2022-07-29T07:53:43;16.60;99.90
52167;DHT22;38149;52.666;6.428;2022-07-29T07:56:10;16.70;99.90
52167;DHT22;38149;52.666;6.428;2022-07-29T07:58:36;16.70;99.90
52167;DHT22;38149;52.666;6.428;2022-07-29T08:01:02;16.70;99.90
52167;DHT22;38149;52.666;6.428;2022-07-29T08:03:28;16.80;99.90
52167;DHT22;38149;52.666;6.428;2022-07-29T08:05:55;16.80;99.90
52167;DHT22;38149;52.666;6.428;2022-07-29T08:08:21;16.80;99.90
52167;DHT22;38149;52.666;6.428;2022-07-29T08:10:46;16.90;99.90
52167;DHT22;38149;52.666;6.428;2022-07-29T08:13:20;16.90;99.90
52167;DHT22;38149;52.666;6.428;2022-07-29T08:15:46;16.90;99.90
52167;DHT22;38149;52.666;6.428;2022-07-29T08:18:15;16.90;99.90
52167;DHT22;38149;52.666;6.428;2022-07-29T08:20:41;16.90;99.90
52167;DHT22;38149;52.666;6.428;2022-07-29T08:23:07;16.90;99.90
52167;DHT22;38149;52.666;6.428;2022-07-29T08:25:37;16.90;99.90
52167;DHT22;38149;52.666;6.428;2022-07-29T08:28:07;16.90;99.90
52167;DHT22;38149;52.666;6.428;2022-07-29T08:30:34;17.00;99.90
52167;DHT22;38149;52.666;6.428;2022-07-29T08:33:00;17.00;99.90
52167;DHT22;38149;52.666;6.428;2022-07-29T08:35:26;17.00;99.90
52167;DHT22;38149;52.666;6.428;2022-07-29T08:37:53;17.00;99.90
52167;DHT22;38149;52.666;6.428;2022-07-29T08:40:20;17.10;99.90
52167;DHT22;38149;52.666;6.428;2022-07-29T08:42:47;17.00;99.90
52167;DHT22;38149;52.666;6.428;2022-07-29T08:45:13;17.10;99.90
52167;DHT22;38149;52.666;6.428;2022-07-29T08:47:39;17.10;99.90
52167;DHT22;38149;52.666;6.428;2022-07-29T08:50:10;17.20;99.90
52167;DHT22;38149;52.666;6.428;2022-07-29T08:52:38;17.20;99.90
52167;DHT22;38149;52.666;6.428;2022-07-29T08:55:06;17.30;99.90
52167;DHT22;38149;52.666;6.428;2022-07-29T08:57:34;17.30;99.90
52167;DHT22;38149;52.666;6.428;2022-07-29T09:00:02;17.40;99.90
52167;DHT22;38149;52.666;6.428;2022-07-29T09:02:35;17.40;99.90
52167;DHT22;38149;52.666;6.428;2022-07-29T09:05:04;17.50;99.90
52167;DHT22;38149;52.666;6.428;2022-07-29T09:07:30;17.60;99.90
52167;DHT22;38149;52.666;6.428;2022-07-29T09:09:56;17.60;99.90
52167;DHT22;38149;52.666;6.428;2022-07-29T09:12:22;17.50;99.90
52167;DHT22;38149;52.666;6.428;2022-07-29T09:14:50;17.70;99.90
52167;DHT22;38149;52.666;6.428;2022-07-29T09:17:16;17.70;99.90
52167;DHT22;38149;52.666;6.428;2022-07-29T09:19:43;17.70;99.90
52167;DHT22;38149;52.666;6.428;2022-07-29T09:22:08;17.80;99.90
52167;DHT22;38149;52.666;6.428;2022-07-29T09:27:19;17.90;99.90
52167;DHT22;38149;52.666;6.428;2022-07-29T09:29:47;17.90;99.90
52167;DHT22;38149;52.666;6.428;2022-07-29T09:32:21;17.90;99.90
52167;DHT22;38149;52.666;6.428;2022-07-29T09:34:47;18.00;99.90
52167;DHT22;38149;52.666;6.428;2022-07-29T09:37:26;17.90;99.90
52167;DHT22;38149;52.666;6.428;2022-07-29T09:39:54;18.00;99.90
52167;DHT22;38149;52.666;6.428;2022-07-29T09:42:30;18.10;99.90
52167;DHT22;38149;52.666;6.428;2022-07-29T09:44:57;18.10;99.90
52167;DHT22;38149;52.666;6.428;2022-07-29T09:47:43;18.10;99.90
52167;DHT22;38149;52.666;6.428;2022-07-29T09:50:11;18.20;99.90
52167;DHT22;38149;52.666;6.428;2022-07-29T09:52:48;18.20;99.90
52167;DHT22;38149;52.666;6.428;2022-07-29T09:55:16;18.30;99.90
52167;DHT22;38149;52.666;6.428;2022-07-29T09:57:43;18.30;99.90
52167;DHT22;38149;52.666;6.428;2022-07-29T10:00:12;18.30;99.90
52167;DHT22;38149;52.666;6.428;2022-07-29T10:02:44;18.40;99.90
52167;DHT22;38149;52.666;6.428;2022-07-29T10:05:26;18.50;99.90
52167;DHT22;38149;52.666;6.428;2022-07-29T10:07:57;18.50;99.90
52167;DHT22;38149;52.666;6.428;2022-07-29T10:10:44;18.60;99.90
52167;DHT22;38149;52.666;6.428;2022-07-29T10:13:12;18.60;99.90
52167;DHT22;38149;52.666;6.428;2022-07-29T10:15:41;18.70;99.90
52167;DHT22;38149;52.666;6.428;2022-07-29T10:18:11;18.80;99.90
52167;DHT22;38149;52.666;6.428;2022-07-29T10:20:38;18.80;99.90
52167;DHT22;38149;52.666;6.428;2022-07-29T10:23:05;18.90;99.90
52167;DHT22;38149;52.666;6.428;2022-07-29T10:25:31;18.90;99.90
52167;DHT22;38149;52.666;6.428;2022-07-29T10:30:24;19.10;99.90
52167;DHT22;38149;52.666;6.428;2022-07-29T10:43:45;19.40;99.90
52167;DHT22;38149;52.666;6.428;2022-07-29T10:46:12;19.40;99.90
52167;DHT22;38149;52.666;6.428;2022-07-29T10:49:17;19.60;99.90
52167;DHT22;38149;52.666;6.428;2022-07-29T10:54:46;19.70;99.90
52167;DHT22;38149;52.666;6.428;2022-07-29T10:57:23;19.80;99.90
52167;DHT22;38149;52.666;6.428;2022-07-29T11:10:39;20.20;99.90
52167;DHT22;38149;52.666;6.428;2022-07-29T11:13:05;20.30;99.90
52167;DHT22;38149;52.666;6.428;2022-07-29T11:15:54;20.30;99.90
52167;DHT22;38149;52.666;6.428;2022-07-29T11:18:21;20.40;99.90
52167;DHT22;38149;52.666;6.428;2022-07-29T11:20:51;20.40;99.90
52167;DHT22;38149;52.666;6.428;2022-07-29T11:23:33;20.50;99.90
52167;DHT22;38149;52.666;6.428;2022-07-29T11:29:01;20.70;99.90
52167;DHT22;38149;52.666;6.428;2022-07-29T11:31:55;20.80;99.90
52167;DHT22;38149;52.666;6.428;2022-07-29T11:34:34;20.80;99.90
52167;DHT22;38149;52.666;6.428;2022-07-29T11:47:31;21.40;99.90
52167;DHT22;38149;52.666;6.428;2022-07-29T11:50:00;21.40;99.90
52167;DHT22;38149;52.666;6.428;2022-07-29T11:52:37;21.40;99.90
52167;DHT22;38149;52.666;6.428;2022-07-29T11:55:09;21.40;99.90
52167;DHT22;38149;52.666;6.428;2022-07-29T11:57:44;21.50;99.90
52167;DHT22;38149;52.666;6.428;2022-07-29T12:00:53;21.60;99.90
52167;DHT22;38149;52.666;6.428;2022-07-29T12:03:24;21.60;99.90
52167;DHT22;38149;52.666;6.428;2022-07-29T12:05:51;21.70;99.90
52167;DHT22;38149;52.666;6.428;2022-07-29T12:08:20;21.90;99.90
52167;DHT22;38149;52.666;6.428;2022-07-29T12:10:49;21.80;99.90
52167;DHT22;38149;52.666;6.428;2022-07-29T12:13:17;21.90;99.90
52167;DHT22;38149;52.666;6.428;2022-07-29T12:15:55;22.20;99.90
52167;DHT22;38149;52.666;6.428;2022-07-29T12:18:24;22.10;99.90
52167;DHT22;38149;52.666;6.428;2022-07-29T12:20:57;22.30;99.90
52167;DHT22;38149;52.666;6.428;2022-07-29T12:25:57;22.30;99.90
52167;DHT22;38149;52.666;6.428;2022-07-29T12:28:24;23.60;99.90
52167;DHT22;38149;52.666;6.428;2022-07-29T12:30:50;22.50;99.90
52167;DHT22;38149;52.666;6.428;2022-07-29T12:33:26;22.50;99.90
52167;DHT22;38149;52.666;6.428;2022-07-29T12:35:58;22.60;99.90
52167;DHT22;38149;52.666;6.428;2022-07-29T12:38:26;22.70;99.90
52167;DHT22;38149;52.666;6.428;2022-07-29T12:40:53;22.80;99.90
52167;DHT22;38149;52.666;6.428;2022-07-29T12:43:21;23.00;99.90
52167;DHT22;38149;52.666;6.428;2022-07-29T12:45:50;23.00;99.90
52167;DHT22;38149;52.666;6.428;2022-07-29T12:48:32;23.10;99.90
52167;DHT22;38149;52.666;6.428;2022-07-29T12:51:00;23.20;99.90
52167;DHT22;38149;52.666;6.428;2022-07-29T12:53:27;23.20;99.90
52167;DHT22;38149;52.666;6.428;2022-07-29T12:55:55;23.30;99.90
52167;DHT22;38149;52.666;6.428;2022-07-29T12:58:28;23.40;99.90
52167;DHT22;38149;52.666;6.428;2022-07-29T13:01:20;23.50;99.90
52167;DHT22;38149;52.666;6.428;2022-07-29T13:03:56;23.50;99.90
52167;DHT22;38149;52.666;6.428;2022-07-29T13:09:19;23.70;99.90
52167;DHT22;38149;52.666;6.428;2022-07-29T13:14:34;23.80;99.90
52167;DHT22;38149;52.666;6.428;2022-07-29T13:17:06;23.80;99.90
52167;DHT22;38149;52.666;6.428;2022-07-29T13:20:27;23.80;99.90
52167;DHT22;38149;52.666;6.428;2022-07-29T13:22:37;23.90;99.90
52167;DHT22;38149;52.666;6.428;2022-07-29T13:25:03;24.00;99.90
52167;DHT22;38149;52.666;6.428;2022-07-29T13:27:34;24.00;99.90
52167;DHT22;38149;52.666;6.428;2022-07-29T13:30:07;24.10;99.90
52167;DHT22;38149;52.666;6.428;2022-07-29T13:32:34;24.20;99.90
52167;DHT22;38149;52.666;6.428;2022-07-29T13:35:04;24.30;99.90
52167;DHT22;38149;52.666;6.428;2022-07-29T13:37:33;24.40;99.90
52167;DHT22;38149;52.666;6.428;2022-07-29T13:40:03;24.50;99.90
52167;DHT22;38149;52.666;6.428;2022-07-29T13:42:31;24.80;99.90
52167;DHT22;38149;52.666;6.428;2022-07-29T13:44:58;24.70;99.90
52167;DHT22;38149;52.666;6.428;2022-07-29T13:47:24;24.80;99.90
52167;DHT22;38149;52.666;6.428;2022-07-29T13:49:50;24.80;99.90
52167;DHT22;38149;52.666;6.428;2022-07-29T13:54:44;25.00;99.40
52167;DHT22;38149;52.666;6.428;2022-07-29T13:57:11;25.10;99.90
52167;DHT22;38149;52.666;6.428;2022-07-29T14:02:04;25.00;99.90
52167;DHT22;38149;52.666;6.428;2022-07-29T14:14:17;25.30;99.90
52167;DHT22;38149;52.666;6.428;2022-07-29T14:19:08;26.10;98.20
52167;DHT22;38149;52.666;6.428;2022-07-29T14:21:34;26.10;98.80
52167;DHT22;38149;52.666;6.428;2022-07-29T14:24:00;26.20;98.60
52167;DHT22;38149;52.666;6.428;2022-07-29T14:26:26;26.00;99.30
52167;DHT22;38149;52.666;6.428;2022-07-29T14:28:52;26.50;97.00
52167;DHT22;38149;52.666;6.428;2022-07-29T14:31:17;26.50;97.90
52167;DHT22;38149;52.666;6.428;2022-07-29T14:33:43;26.50;97.70
52167;DHT22;38149;52.666;6.428;2022-07-29T14:36:09;26.60;97.40
52167;DHT22;38149;52.666;6.428;2022-07-29T14:38:35;26.80;97.20
52167;DHT22;38149;52.666;6.428;2022-07-29T14:41:02;26.80;96.90
52167;DHT22;38149;52.666;6.428;2022-07-29T14:43:28;26.90;96.70
52167;DHT22;38149;52.666;6.428;2022-07-29T14:48:20;27.20;95.60
52167;DHT22;38149;52.666;6.428;2022-07-29T14:50:46;27.20;96.20
52167;DHT22;38149;52.666;6.428;2022-07-29T14:53:12;27.30;96.10
52167;DHT22;38149;52.666;6.428;2022-07-29T14:55:39;27.40;95.80
52167;DHT22;38149;52.666;6.428;2022-07-29T14:58:05;27.50;95.60
52167;DHT22;38149;52.666;6.428;2022-07-29T15:00:31;27.60;95.40
52167;DHT22;38149;52.666;6.428;2022-07-29T15:02:59;27.60;95.30
52167;DHT22;38149;52.666;6.428;2022-07-29T15:05:26;27.70;95.30
52167;DHT22;38149;52.666;6.428;2022-07-29T15:07:52;27.80;95.00
52167;DHT22;38149;52.666;6.428;2022-07-29T15:10:18;27.80;95.00
52167;DHT22;38149;52.666;6.428;2022-07-29T15:12:43;27.90;93.80
52167;DHT22;38149;52.666;6.428;2022-07-29T15:15:09;28.10;93.40
52167;DHT22;38149;52.666;6.428;2022-07-29T15:17:35;28.20;93.40
52167;DHT22;38149;52.666;6.428;2022-07-29T15:20:01;28.30;93.10
52167;DHT22;38149;52.666;6.428;2022-07-29T15:22:26;28.30;94.10
52167;DHT22;38149;52.666;6.428;2022-07-29T15:24:52;28.40;93.70
52167;DHT22;38149;52.666;6.428;2022-07-29T15:27:18;28.50;93.70
52167;DHT22;38149;52.666;6.428;2022-07-29T15:29:44;28.60;93.40
52167;DHT22;38149;52.666;6.428;2022-07-29T15:32:10;28.60;93.10
52167;DHT22;38149;52.666;6.428;2022-07-29T15:34:37;28.70;93.10
52167;DHT22;38149;52.666;6.428;2022-07-29T15:37:04;28.80;92.90
52167;DHT22;38149;52.666;6.428;2022-07-29T15:39:30;28.90;92.60
52167;DHT22;38149;52.666;6.428;2022-07-29T15:41:56;28.90;92.50
52167;DHT22;38149;52.666;6.428;2022-07-29T15:44:22;28.90;92.20
52167;DHT22;38149;52.666;6.428;2022-07-29T15:46:48;29.00;92.30
52167;DHT22;38149;52.666;6.428;2022-07-29T15:49:40;29.10;92.10
52167;DHT22;38149;52.666;6.428;2022-07-29T15:52:08;29.30;91.40
52167;DHT22;38149;52.666;6.428;2022-07-29T15:54:36;29.30;91.60
52167;DHT22;38149;52.666;6.428;2022-07-29T15:57:05;29.30;91.50
52167;DHT22;38149;52.666;6.428;2022-07-29T15:59:32;29.40;91.30
52167;DHT22;38149;52.666;6.428;2022-07-29T16:01:59;29.40;91.30
52167;DHT22;38149;52.666;6.428;2022-07-29T16:04:25;29.50;91.20
52167;DHT22;38149;52.666;6.428;2022-07-29T16:06:51;29.50;91.00
52167;DHT22;38149;52.666;6.428;2022-07-29T16:09:17;29.50;90.90
52167;DHT22;38149;52.666;6.428;2022-07-29T16:11:43;29.60;90.70
52167;DHT22;38149;52.666;6.428;2022-07-29T16:14:11;29.60;90.40
52167;DHT22;38149;52.666;6.428;2022-07-29T16:16:37;29.60;90.30
52167;DHT22;38149;52.666;6.428;2022-07-29T16:19:04;29.60;90.00
52167;DHT22;38149;52.666;6.428;2022-07-29T16:21:29;29.60;89.90
52167;DHT22;38149;52.666;6.428;2022-07-29T16:23:59;29.70;89.70
52167;DHT22;38149;52.666;6.428;2022-07-29T16:26:26;29.70;89.10
52167;DHT22;38149;52.666;6.428;2022-07-29T16:28:52;29.70;88.90
52167;DHT22;38149;52.666;6.428;2022-07-29T16:31:18;29.60;88.50
52167;DHT22;38149;52.666;6.428;2022-07-29T16:33:48;29.60;88.20
52167;DHT22;38149;52.666;6.428;2022-07-29T16:36:15;29.70;87.70
52167;DHT22;38149;52.666;6.428;2022-07-29T16:38:41;29.70;87.50
52167;DHT22;38149;52.666;6.428;2022-07-29T16:41:07;29.80;87.40
52167;DHT22;38149;52.666;6.428;2022-07-29T16:43:33;29.80;87.20
52167;DHT22;38149;52.666;6.428;2022-07-29T16:45:59;29.70;86.60
52167;DHT22;38149;52.666;6.428;2022-07-29T16:48:25;29.60;86.40
52167;DHT22;38149;52.666;6.428;2022-07-29T16:53:17;29.70;85.10
52167;DHT22;38149;52.666;6.428;2022-07-29T16:55:43;29.60;85.90
52167;DHT22;38149;52.666;6.428;2022-07-29T16:58:09;29.50;92.00
52167;DHT22;38149;52.666;6.428;2022-07-29T17:03:04;29.30;85.10
52167;DHT22;38149;52.666;6.428;2022-07-29T17:05:29;29.30;85.50
52167;DHT22;38149;52.666;6.428;2022-07-29T17:07:55;29.50;90.40
52167;DHT22;38149;52.666;6.428;2022-07-29T17:10:23;29.30;91.20
52167;DHT22;38149;52.666;6.428;2022-07-29T17:12:50;29.10;91.50
52167;DHT22;38149;52.666;6.428;2022-07-29T17:15:16;29.00;83.90
52167;DHT22;38149;52.666;6.428;2022-07-29T17:22:37;28.80;83.80
52167;DHT22;38149;52.666;6.428;2022-07-29T17:44:36;28.10;88.00
52167;DHT22;38149;52.666;6.428;2022-07-29T17:51:56;27.80;91.50
52167;DHT22;38149;52.666;6.428;2022-07-29T17:59:14;27.40;84.20
52167;DHT22;38149;52.666;6.428;2022-07-29T18:01:40;27.40;84.60
52167;DHT22;38149;52.666;6.428;2022-07-29T18:04:08;27.20;85.50
52167;DHT22;38149;52.666;6.428;2022-07-29T18:06:35;27.10;85.60
52167;DHT22;38149;52.666;6.428;2022-07-29T18:09:02;27.00;85.50
52167;DHT22;38149;52.666;6.428;2022-07-29T18:16:23;26.90;85.20
52167;DHT22;38149;52.666;6.428;2022-07-29T18:18:49;26.80;85.70
52167;DHT22;38149;52.666;6.428;2022-07-29T18:21:15;26.70;85.40
52167;DHT22;38149;52.666;6.428;2022-07-29T18:23:41;26.60;86.60
52167;DHT22;38149;52.666;6.428;2022-07-29T18:26:06;26.60;86.80
52167;DHT22;38149;52.666;6.428;2022-07-29T18:28:32;26.50;87.70
52167;DHT22;38149;52.666;6.428;2022-07-29T18:30:59;26.50;86.80
52167;DHT22;38149;52.666;6.428;2022-07-29T18:33:25;26.50;87.10
52167;DHT22;38149;52.666;6.428;2022-07-29T18:35:52;26.40;88.30
52167;DHT22;38149;52.666;6.428;2022-07-29T18:38:18;26.40;87.60
52167;DHT22;38149;52.666;6.428;2022-07-29T18:40:46;26.30;87.80
52167;DHT22;38149;52.666;6.428;2022-07-29T18:43:12;26.20;87.90
52167;DHT22;38149;52.666;6.428;2022-07-29T18:45:38;26.20;89.50
52167;DHT22;38149;52.666;6.428;2022-07-29T18:48:05;26.20;88.50
52167;DHT22;38149;52.666;6.428;2022-07-29T18:50:32;26.10;88.50
52167;DHT22;38149;52.666;6.428;2022-07-29T18:52:58;26.10;89.00
52167;DHT22;38149;52.666;6.428;2022-07-29T18:55:26;25.90;88.90
52167;DHT22;38149;52.666;6.428;2022-07-29T18:57:52;25.90;89.40
52167;DHT22;38149;52.666;6.428;2022-07-29T19:00:18;25.90;89.60
52167;DHT22;38149;52.666;6.428;2022-07-29T19:02:43;25.70;89.50
52167;DHT22;38149;52.666;6.428;2022-07-29T19:05:09;25.70;90.50
52167;DHT22;38149;52.666;6.428;2022-07-29T19:07:35;25.70;90.40
52167;DHT22;38149;52.666;6.428;2022-07-29T19:10:03;25.60;90.30
52167;DHT22;38149;52.666;6.428;2022-07-29T19:12:29;25.50;90.40
52167;DHT22;38149;52.666;6.428;2022-07-29T19:14:55;25.40;90.60
52167;DHT22;38149;52.666;6.428;2022-07-29T19:17:20;25.40;90.80
52167;DHT22;38149;52.666;6.428;2022-07-29T19:19:46;25.20;90.90
52167;DHT22;38149;52.666;6.428;2022-07-29T19:22:12;25.10;90.90
52167;DHT22;38149;52.666;6.428;2022-07-29T19:24:41;25.00;91.70
52167;DHT22;38149;52.666;6.428;2022-07-29T19:27:07;24.90;91.70
52167;DHT22;38149;52.666;6.428;2022-07-29T19:29:32;24.90;91.80
52167;DHT22;38149;52.666;6.428;2022-07-29T19:34:28;24.80;91.90
52167;DHT22;38149;52.666;6.428;2022-07-29T19:36:54;24.70;91.90
52167;DHT22;38149;52.666;6.428;2022-07-29T19:39:20;24.60;91.90
52167;DHT22;38149;52.666;6.428;2022-07-29T19:41:46;24.50;92.30
52167;DHT22;38149;52.666;6.428;2022-07-29T19:44:12;24.40;92.10
52167;DHT22;38149;52.666;6.428;2022-07-29T19:46:39;24.30;92.20
52167;DHT22;38149;52.666;6.428;2022-07-29T19:49:05;24.20;92.90
52167;DHT22;38149;52.666;6.428;2022-07-29T19:51:34;24.10;92.80
52167;DHT22;38149;52.666;6.428;2022-07-29T19:54:00;24.00;93.20
52167;DHT22;38149;52.666;6.428;2022-07-29T19:56:26;23.90;93.30
52167;DHT22;38149;52.666;6.428;2022-07-29T19:58:54;23.90;92.90
52167;DHT22;38149;52.666;6.428;2022-07-29T20:01:20;23.90;93.40
52167;DHT22;38149;52.666;6.428;2022-07-29T20:03:46;23.70;93.00
52167;DHT22;38149;52.666;6.428;2022-07-29T20:06:12;23.60;93.60
52167;DHT22;38149;52.666;6.428;2022-07-29T20:08:38;23.60;93.30
52167;DHT22;38149;52.666;6.428;2022-07-29T20:11:04;23.50;93.30
52167;DHT22;38149;52.666;6.428;2022-07-29T20:13:30;23.40;93.50
52167;DHT22;38149;52.666;6.428;2022-07-29T20:18:24;23.30;93.60
52167;DHT22;38149;52.666;6.428;2022-07-29T20:20:51;23.20;93.90
52167;DHT22;38149;52.666;6.428;2022-07-29T20:23:18;23.10;94.10
52167;DHT22;38149;52.666;6.428;2022-07-29T20:25:47;23.00;94.20
52167;DHT22;38149;52.666;6.428;2022-07-29T20:28:13;22.90;94.30
52167;DHT22;38149;52.666;6.428;2022-07-29T20:30:39;22.90;94.40
52167;DHT22;38149;52.666;6.428;2022-07-29T20:33:06;22.80;94.50
52167;DHT22;38149;52.666;6.428;2022-07-29T20:35:32;22.60;94.40
52167;DHT22;38149;52.666;6.428;2022-07-29T20:37:57;22.60;94.80
52167;DHT22;38149;52.666;6.428;2022-07-29T20:40:25;22.50;94.90
52167;DHT22;38149;52.666;6.428;2022-07-29T20:42:52;22.40;95.00
52167;DHT22;38149;52.666;6.428;2022-07-29T20:45:18;22.30;95.10
52167;DHT22;38149;52.666;6.428;2022-07-29T20:47:44;22.30;95.20
52167;DHT22;38149;52.666;6.428;2022-07-29T20:50:10;22.20;95.30
52167;DHT22;38149;52.666;6.428;2022-07-29T20:52:36;22.10;95.40
52167;DHT22;38149;52.666;6.428;2022-07-29T20:55:08;22.10;95.60
52167;DHT22;38149;52.666;6.428;2022-07-29T20:57:34;22.00;95.60
52167;DHT22;38149;52.666;6.428;2022-07-29T21:00:00;22.00;95.80
52167;DHT22;38149;52.666;6.428;2022-07-29T21:02:26;21.90;96.00
52167;DHT22;38149;52.666;6.428;2022-07-29T21:04:51;21.90;96.00
52167;DHT22;38149;52.666;6.428;2022-07-29T21:07:17;21.80;96.00
52167;DHT22;38149;52.666;6.428;2022-07-29T21:09:43;21.70;96.20
52167;DHT22;38149;52.666;6.428;2022-07-29T21:12:09;21.70;96.20
52167;DHT22;38149;52.666;6.428;2022-07-29T21:14:36;21.50;96.00
52167;DHT22;38149;52.666;6.428;2022-07-29T21:17:05;21.50;96.30
52167;DHT22;38149;52.666;6.428;2022-07-29T21:19:35;21.50;96.40
52167;DHT22;38149;52.666;6.428;2022-07-29T21:22:01;21.40;96.60
52167;DHT22;38149;52.666;6.428;2022-07-29T21:24:27;21.30;96.60
52167;DHT22;38149;52.666;6.428;2022-07-29T21:26:53;21.30;96.60
52167;DHT22;38149;52.666;6.428;2022-07-29T21:29:38;21.20;96.80
52167;DHT22;38149;52.666;6.428;2022-07-29T21:32:04;21.10;96.80
52167;DHT22;38149;52.666;6.428;2022-07-29T21:34:30;21.10;97.00
52167;DHT22;38149;52.666;6.428;2022-07-29T21:36:55;21.10;97.10
52167;DHT22;38149;52.666;6.428;2022-07-29T21:39:21;21.00;97.20
52167;DHT22;38149;52.666;6.428;2022-07-29T21:44:13;20.90;97.20
52167;DHT22;38149;52.666;6.428;2022-07-29T21:46:39;20.80;97.50
52167;DHT22;38149;52.666;6.428;2022-07-29T21:49:04;20.80;97.70
52167;DHT22;38149;52.666;6.428;2022-07-29T21:51:30;20.70;97.70
52167;DHT22;38149;52.666;6.428;2022-07-29T21:53:56;20.70;97.80
52167;DHT22;38149;52.666;6.428;2022-07-29T21:56:21;20.70;97.90
52167;DHT22;38149;52.666;6.428;2022-07-29T21:58:48;20.60;98.10
52167;DHT22;38149;52.666;6.428;2022-07-29T22:01:13;20.50;98.20
52167;DHT22;38149;52.666;6.428;2022-07-29T22:03:39;20.50;98.30
52167;DHT22;38149;52.666;6.428;2022-07-29T22:06:05;20.40;98.30
52167;DHT22;38149;52.666;6.428;2022-07-29T22:08:31;20.40;98.50
52167;DHT22;38149;52.666;6.428;2022-07-29T22:10:56;20.30;98.50
52167;DHT22;38149;52.666;6.428;2022-07-29T22:13:22;20.30;98.90
52167;DHT22;38149;52.666;6.428;2022-07-29T22:15:48;20.20;98.80
52167;DHT22;38149;52.666;6.428;2022-07-29T22:18:13;20.10;98.70
52167;DHT22;38149;52.666;6.428;2022-07-29T22:20:39;20.10;99.00
52167;DHT22;38149;52.666;6.428;2022-07-29T22:23:05;20.00;99.30
52167;DHT22;38149;52.666;6.428;2022-07-29T22:25:31;20.00;99.30
52167;DHT22;38149;52.666;6.428;2022-07-29T22:27:57;19.90;99.40